createdAt,value
2023-05-04T00:00:33.516Z,4030.00
2023-05-04T00:01:33.458Z,4049.00
2023-05-04T00:02:33.570Z,4049.00
2023-05-04T00:03:33.570Z,4048.00
2023-05-04T00:04:33.563Z,4029.00
2023-05-04T00:05:33.456Z,4034.00
2023-05-04T00:06:33.449Z,4032.00
2023-05-04T00:07:33.452Z,4025.00
2023-05-04T00:08:33.460Z,4023.00
2023-05-04T00:09:33.414Z,4028.00
2023-05-04T00:10:33.400Z,4023.00
2023-05-04T00:11:33.431Z,4016.00
2023-05-04T00:12:33.422Z,4012.00
2023-05-04T00:13:33.404Z,4010.00
2023-05-04T00:14:33.383Z,4010.00
2023-05-04T00:15:33.414Z,4012.00
2023-05-04T00:16:33.413Z,4010.00
2023-05-04T00:17:33.382Z,4000.00
2023-05-04T00:18:33.465Z,3995.00
2023-05-04T00:19:33.323Z,3996.00
2023-05-04T00:20:33.302Z,4000.00
2023-05-04T00:21:33.350Z,3986.00
2023-05-04T00:22:33.319Z,3991.00
2023-05-04T00:23:33.323Z,3979.00
2023-05-04T00:24:33.306Z,3993.00
2023-05-04T00:25:33.319Z,3983.00
2023-05-04T00:26:33.343Z,3986.00
2023-05-04T00:27:33.435Z,3969.00
2023-05-04T00:28:33.408Z,3983.00
2023-05-04T00:29:33.436Z,3973.00
2023-05-04T00:30:33.479Z,3976.00
2023-05-04T00:31:33.543Z,3970.00
2023-05-04T00:32:33.652Z,3960.00
2023-05-04T00:33:33.634Z,3961.00
2023-05-04T00:34:33.601Z,3963.00
2023-05-04T00:35:33.660Z,3959.00
2023-05-04T00:36:33.744Z,3945.00
2023-05-04T00:37:33.767Z,3946.00
2023-05-04T00:38:33.770Z,3945.00
2023-05-04T00:39:33.800Z,3932.00
2023-05-04T00:40:33.808Z,3930.00
2023-05-04T00:41:33.888Z,3930.00
2023-05-04T00:42:33.900Z,3936.00
2023-05-04T00:43:33.972Z,3934.00
2023-05-04T00:44:34.029Z,3938.00
2023-05-04T00:45:34.065Z,3936.00
2023-05-04T00:46:34.168Z,3923.00
2023-05-04T00:47:34.219Z,3929.00
2023-05-04T00:48:34.242Z,3919.00
2023-05-04T00:49:34.303Z,3921.00
2023-05-04T00:50:34.340Z,3908.00
2023-05-04T00:51:34.413Z,3916.00
2023-05-04T00:52:34.454Z,3922.00
2023-05-04T00:53:34.520Z,3903.00
2023-05-04T00:54:34.564Z,3901.00
2023-05-04T00:55:34.601Z,3901.00
2023-05-04T00:56:34.652Z,3898.00
2023-05-04T00:57:34.685Z,3902.00
2023-05-04T00:58:34.723Z,3903.00
2023-05-04T00:59:34.781Z,3889.00
2023-05-04T01:00:34.825Z,3898.00
2023-05-04T01:01:34.959Z,3890.00
2023-05-04T01:02:34.924Z,3896.00
2023-05-04T01:03:34.944Z,3885.00
2023-05-04T01:04:35.012Z,3883.00
2023-05-04T01:05:35.031Z,3885.00
2023-05-04T01:06:35.056Z,3881.00
2023-05-04T01:07:35.025Z,3877.00
2023-05-04T01:08:35.045Z,3874.00
2023-05-04T01:09:35.036Z,3880.00
2023-05-04T01:10:35.031Z,3867.00
2023-05-04T01:11:35.102Z,3871.00
2023-05-04T01:12:35.115Z,3867.00
2023-05-04T01:13:35.134Z,3853.00
2023-05-04T01:14:35.149Z,3860.00
2023-05-04T01:15:35.220Z,3850.00
2023-05-04T01:16:35.321Z,3855.00
2023-05-04T01:17:35.339Z,3845.00
2023-05-04T01:18:35.380Z,3853.00
2023-05-04T01:19:35.405Z,3844.00
2023-05-04T01:20:35.445Z,3837.00
2023-05-04T01:21:35.499Z,3828.00
2023-05-04T01:22:35.547Z,3838.00
2023-05-04T01:23:35.553Z,3834.00
2023-05-04T01:24:35.629Z,3833.00
2023-05-04T01:25:35.674Z,3815.00
2023-05-04T01:26:35.693Z,3822.00
2023-05-04T01:27:35.755Z,3823.00
2023-05-04T01:28:35.801Z,3821.00
2023-05-04T01:29:35.805Z,3814.00
2023-05-04T01:30:35.870Z,3811.00
2023-05-04T01:31:35.826Z,3821.00
2023-05-04T01:32:36.025Z,3811.00
2023-05-04T01:33:35.961Z,3803.00
2023-05-04T01:34:35.976Z,3804.00
2023-05-04T01:35:36.004Z,3805.00
2023-05-04T01:36:36.055Z,3806.00
2023-05-04T01:37:36.084Z,3799.00
2023-05-04T01:38:36.112Z,3794.00
2023-05-04T01:39:36.150Z,3783.00
2023-05-04T01:40:36.158Z,3787.00
2023-05-04T01:41:36.159Z,3782.00
2023-05-04T01:42:36.174Z,3786.00
2023-05-04T01:43:36.207Z,3767.00
2023-05-04T01:44:36.204Z,3775.00
2023-05-04T01:45:36.236Z,3773.00
2023-05-04T01:46:36.278Z,3772.00
2023-05-04T01:47:36.308Z,3776.00
2023-05-04T01:48:36.327Z,3768.00
2023-05-04T01:49:36.323Z,3759.00
2023-05-04T01:50:36.375Z,3760.00
2023-05-04T01:51:36.421Z,3760.00
2023-05-04T01:52:36.417Z,3760.00
2023-05-04T01:53:36.452Z,3750.00
2023-05-04T01:54:36.490Z,3750.00
2023-05-04T01:55:36.503Z,3745.00
2023-05-04T01:56:36.524Z,3738.00
2023-05-04T01:57:36.522Z,3739.00
2023-05-04T01:58:36.559Z,3736.00
2023-05-04T01:59:36.577Z,3735.00
2023-05-04T02:00:36.618Z,3719.00
2023-05-04T02:01:36.668Z,3717.00
2023-05-04T02:02:36.667Z,3723.00
2023-05-04T02:03:36.742Z,3727.00
2023-05-04T02:04:36.692Z,3716.00
2023-05-04T02:05:36.748Z,3718.00
2023-05-04T02:06:36.748Z,3719.00
2023-05-04T02:07:36.796Z,3701.00
2023-05-04T02:08:36.868Z,3706.00
2023-05-04T02:09:36.772Z,3699.00
2023-05-04T02:10:36.818Z,3710.00
2023-05-04T02:11:36.822Z,3706.00
2023-05-04T02:12:36.801Z,3700.00
2023-05-04T02:13:36.782Z,3702.00
2023-05-04T02:14:36.779Z,3689.00
2023-05-04T02:15:36.874Z,3690.00
2023-05-04T02:16:36.793Z,3681.00
2023-05-04T02:17:36.821Z,3682.00
2023-05-04T02:18:36.822Z,3694.00
2023-05-04T02:19:36.801Z,3689.00
2023-05-04T02:20:36.777Z,3685.00
2023-05-04T02:21:36.774Z,3681.00
2023-05-04T02:22:36.823Z,3675.00
2023-05-04T02:23:36.797Z,3669.00
2023-05-04T02:24:36.806Z,3670.00
2023-05-04T02:25:36.837Z,3663.00
2023-05-04T02:26:36.806Z,3665.00
2023-05-04T02:27:36.805Z,3657.00
2023-05-04T02:28:36.824Z,3647.00
2023-05-04T02:29:36.863Z,3653.00
2023-05-04T02:30:36.850Z,3657.00
2023-05-04T02:31:36.932Z,3652.00
2023-05-04T02:32:36.941Z,3650.00
2023-05-04T02:33:36.966Z,3647.00
2023-05-04T02:34:36.996Z,3653.00
2023-05-04T02:35:37.001Z,3645.00
2023-05-04T02:36:37.039Z,3645.00
2023-05-04T02:37:37.071Z,3634.00
2023-05-04T02:38:37.058Z,3633.00
2023-05-04T02:39:37.071Z,3637.00
2023-05-04T02:40:37.123Z,3633.00
2023-05-04T02:41:37.138Z,3624.00
2023-05-04T02:42:37.150Z,3622.00
2023-05-04T02:43:37.198Z,3625.00
2023-05-04T02:44:37.164Z,3625.00
2023-05-04T02:45:37.282Z,3622.00
2023-05-04T02:46:37.179Z,3616.00
2023-05-04T02:47:37.287Z,3619.00
2023-05-04T02:48:37.239Z,3611.00
2023-05-04T02:49:37.226Z,3612.00
2023-05-04T02:50:37.237Z,3607.00
2023-05-04T02:51:37.217Z,3600.00
2023-05-04T02:52:37.244Z,3596.00
2023-05-04T02:53:37.218Z,3591.00
2023-05-04T02:54:37.317Z,3594.00
2023-05-04T02:55:37.293Z,3599.00
2023-05-04T02:56:37.281Z,3584.00
2023-05-04T02:57:37.291Z,3581.00
2023-05-04T02:58:37.337Z,3579.00
2023-05-04T02:59:37.268Z,3581.00
2023-05-04T03:00:37.252Z,3577.00
2023-05-04T03:01:37.342Z,3575.00
2023-05-04T03:02:37.342Z,3575.00
2023-05-04T03:03:37.349Z,3573.00
2023-05-04T03:04:37.431Z,3569.00
2023-05-04T03:05:37.292Z,3565.00
2023-05-04T03:06:37.320Z,3563.00
2023-05-04T03:07:37.328Z,3566.00
2023-05-04T03:08:37.295Z,3560.00
2023-05-04T03:09:37.320Z,3554.00
2023-05-04T03:10:37.281Z,3555.00
2023-05-04T03:11:37.336Z,3553.00
2023-05-04T03:12:37.306Z,3545.00
2023-05-04T03:13:37.311Z,3543.00
2023-05-04T03:14:37.318Z,3548.00
2023-05-04T03:15:37.290Z,3547.00
2023-05-04T03:16:37.315Z,3537.00
2023-05-04T03:17:37.342Z,3540.00
2023-05-04T03:19:55.921Z,500.00
2023-05-04T03:20:55.930Z,500.00
2023-05-04T03:21:55.901Z,500.00
2023-05-04T03:22:55.902Z,500.00
2023-05-04T03:23:55.911Z,500.00
2023-05-04T03:24:55.909Z,500.00
2023-05-04T03:25:55.876Z,503.00
2023-05-04T03:26:55.891Z,501.00
2023-05-04T03:27:55.893Z,500.00
2023-05-04T03:28:55.846Z,501.00
2023-05-04T03:29:55.857Z,503.00
2023-05-04T03:30:55.848Z,503.00
2023-05-04T03:31:55.852Z,504.00
2023-05-04T03:32:55.961Z,500.00
2023-05-04T03:33:55.837Z,501.00
2023-05-04T03:34:55.799Z,502.00
2023-05-04T03:35:55.786Z,504.00
2023-05-04T03:36:55.819Z,505.00
2023-05-04T03:37:55.793Z,505.00
2023-05-04T03:38:55.809Z,504.00
2023-05-04T03:39:55.764Z,503.00
2023-05-04T03:40:55.771Z,500.00
2023-05-04T03:41:55.780Z,505.00
2023-05-04T03:42:55.760Z,500.00
2023-05-04T03:43:55.740Z,505.00
2023-05-04T03:44:55.748Z,502.00
2023-05-04T03:45:56.128Z,504.00
2023-05-04T03:46:55.747Z,503.00
2023-05-04T03:47:55.764Z,504.00
2023-05-04T03:48:55.725Z,504.00
2023-05-04T03:49:55.745Z,504.00
2023-05-04T03:50:55.711Z,505.00
2023-05-04T03:51:55.662Z,506.00
2023-05-04T03:52:55.675Z,502.00
2023-05-04T03:53:55.666Z,502.00
2023-05-04T03:54:55.709Z,501.00
2023-05-04T03:55:55.639Z,504.00
2023-05-04T03:56:55.659Z,504.00
2023-05-04T03:57:55.682Z,505.00
2023-05-04T03:58:55.632Z,508.00
2023-05-04T03:59:57.603Z,508.00
2023-05-04T04:00:55.657Z,508.00
2023-05-04T04:01:55.694Z,508.00
2023-05-04T04:02:55.683Z,505.00
2023-05-04T04:03:55.726Z,505.00
2023-05-04T04:04:55.635Z,506.00
2023-05-04T04:05:55.632Z,500.00
2023-05-04T04:06:55.585Z,502.00
2023-05-04T04:07:55.595Z,501.00
2023-05-04T04:08:55.604Z,497.00
2023-05-04T04:09:55.607Z,500.00
2023-05-04T04:10:55.563Z,503.00
2023-05-04T04:11:55.571Z,501.00
2023-05-04T04:12:55.639Z,500.00
2023-05-04T04:13:55.637Z,505.00
2023-05-04T04:14:55.694Z,500.00
2023-05-04T04:15:55.822Z,500.00
2023-05-04T04:16:55.784Z,502.00
2023-05-04T04:17:56.031Z,500.00
2023-05-04T04:18:55.880Z,501.00
2023-05-04T04:19:55.893Z,501.00
2023-05-04T04:20:55.942Z,500.00
2023-05-04T04:21:56.001Z,501.00
2023-05-04T04:22:56.054Z,504.00
2023-05-04T04:23:56.095Z,500.00
2023-05-04T04:24:56.156Z,501.00
2023-05-04T04:25:56.187Z,500.00
2023-05-04T04:26:56.197Z,504.00
2023-05-04T04:27:56.209Z,505.00
2023-05-04T04:28:56.195Z,512.00
2023-05-04T04:29:56.270Z,531.00
2023-05-04T04:30:56.341Z,540.00
2023-05-04T04:31:56.398Z,552.00
2023-05-04T04:32:56.431Z,568.00
2023-05-04T04:33:56.445Z,569.00
2023-05-04T04:34:56.443Z,570.00
2023-05-04T04:35:56.471Z,562.00
2023-05-04T04:36:56.517Z,572.00
2023-05-04T04:37:56.540Z,568.00
2023-05-04T04:38:56.496Z,592.00
2023-05-04T04:39:56.556Z,603.00
2023-05-04T04:40:56.543Z,619.00
2023-05-04T04:41:56.572Z,618.00
2023-05-04T04:42:56.607Z,637.00
2023-05-04T04:43:56.608Z,649.00
2023-05-04T04:44:56.646Z,668.00
2023-05-04T04:45:56.617Z,724.00
2023-05-04T04:46:56.786Z,808.00
2023-05-04T04:47:56.826Z,884.00
2023-05-04T04:48:56.812Z,926.00
2023-05-04T04:49:56.827Z,972.00
2023-05-04T04:50:56.874Z,989.00
2023-05-04T04:51:56.981Z,1025.00
2023-05-04T04:52:56.952Z,1062.00
2023-05-04T04:53:56.964Z,1048.00
2023-05-04T04:54:56.992Z,1049.00
2023-05-04T04:55:56.976Z,1062.00
2023-05-04T04:56:57.037Z,1045.00
2023-05-04T04:57:57.056Z,1040.00
2023-05-04T04:58:57.051Z,1034.00
2023-05-04T04:59:57.092Z,1013.00
2023-05-04T05:00:57.191Z,1042.00
2023-05-04T05:01:57.168Z,1099.00
2023-05-04T05:02:57.275Z,1149.00
2023-05-04T05:03:57.241Z,1189.00
2023-05-04T05:04:57.329Z,1252.00
2023-05-04T05:05:57.308Z,1301.00
2023-05-04T05:06:57.302Z,1298.00
2023-05-04T05:07:57.329Z,1257.00
2023-05-04T05:08:57.362Z,1129.00
2023-05-04T05:09:57.445Z,1025.00
2023-05-04T05:10:57.440Z,947.00
2023-05-04T05:11:57.508Z,867.00
2023-05-04T05:12:57.544Z,767.00
2023-05-04T05:13:57.530Z,704.00
2023-05-04T05:14:57.611Z,660.00
2023-05-04T05:15:57.579Z,642.00
2023-05-04T05:16:57.720Z,615.00
2023-05-04T05:17:57.705Z,604.00
2023-05-04T05:18:57.703Z,596.00
2023-05-04T05:19:57.769Z,577.00
2023-05-04T05:20:57.850Z,579.00
2023-05-04T05:21:57.750Z,562.00
2023-05-04T05:22:57.832Z,565.00
2023-05-04T05:23:57.836Z,562.00
2023-05-04T05:24:57.860Z,553.00
2023-05-04T05:25:57.834Z,545.00
2023-05-04T05:26:57.897Z,542.00
2023-05-04T05:27:57.940Z,533.00
2023-05-04T05:28:57.979Z,532.00
2023-05-04T05:29:58.060Z,524.00
2023-05-04T05:30:58.141Z,517.00
2023-05-04T05:31:58.154Z,514.00
2023-05-04T05:32:58.298Z,511.00
2023-05-04T05:33:58.275Z,508.00
2023-05-04T05:34:58.271Z,503.00
2023-05-04T05:35:58.307Z,506.00
2023-05-04T05:36:58.325Z,503.00
2023-05-04T05:37:58.321Z,506.00
2023-05-04T05:38:58.349Z,505.00
2023-05-04T05:39:58.359Z,505.00
2023-05-04T05:40:58.426Z,501.00
2023-05-04T05:41:58.433Z,500.00
2023-05-04T05:42:58.498Z,500.00
2023-05-04T05:43:58.520Z,500.00
2023-05-04T05:44:58.765Z,500.00
2023-05-04T05:45:58.722Z,512.00
2023-05-04T05:46:58.596Z,504.00
2023-05-04T05:47:58.694Z,503.00
2023-05-04T05:48:58.637Z,502.00
2023-05-04T05:49:58.635Z,502.00
2023-05-04T05:50:58.634Z,506.00
2023-05-04T05:51:58.637Z,502.00
2023-05-04T05:52:58.717Z,503.00
2023-05-04T05:53:58.699Z,505.00
2023-05-04T05:55:00.950Z,508.00
2023-05-04T05:55:58.719Z,517.00
2023-05-04T05:56:58.730Z,519.00
2023-05-04T05:57:58.700Z,523.00
2023-05-04T05:58:58.704Z,521.00
2023-05-04T05:59:58.717Z,524.00
2023-05-04T06:00:58.662Z,525.00
2023-05-04T06:01:58.715Z,539.00
2023-05-04T06:02:58.797Z,540.00
2023-05-04T06:03:58.836Z,533.00
2023-05-04T06:04:58.722Z,541.00
2023-05-04T06:05:58.643Z,542.00
2023-05-04T06:06:58.659Z,547.00
2023-05-04T06:07:58.642Z,540.00
2023-05-04T06:08:58.625Z,542.00
2023-05-04T06:09:58.642Z,537.00
2023-05-04T06:10:58.628Z,541.00
2023-05-04T06:11:58.608Z,543.00
2023-05-04T06:12:58.670Z,547.00
2023-05-04T06:13:58.589Z,550.00
2023-05-04T06:14:58.585Z,555.00
2023-05-04T06:15:58.625Z,557.00
2023-05-04T06:16:58.618Z,560.00
2023-05-04T06:17:58.584Z,561.00
2023-05-04T06:18:58.595Z,569.00
2023-05-04T06:19:58.577Z,566.00
2023-05-04T06:20:58.529Z,562.00
2023-05-04T06:21:58.555Z,561.00
2023-05-04T06:22:58.519Z,565.00
2023-05-04T06:23:58.532Z,565.00
2023-05-04T06:25:02.823Z,571.00
2023-05-04T06:25:59.595Z,572.00
2023-05-04T06:26:58.499Z,573.00
2023-05-04T06:27:58.488Z,573.00
2023-05-04T06:28:58.495Z,574.00
2023-05-04T06:29:58.499Z,578.00
2023-05-04T06:30:58.486Z,580.00
2023-05-04T06:31:58.561Z,575.00
2023-05-04T06:32:58.541Z,577.00
2023-05-04T06:33:58.479Z,576.00
2023-05-04T06:34:58.457Z,586.00
2023-05-04T06:35:58.511Z,587.00
2023-05-04T06:36:58.444Z,575.00
2023-05-04T06:37:58.624Z,569.00
2023-05-04T06:38:58.436Z,570.00
2023-05-04T06:39:58.429Z,576.00
2023-05-04T06:40:58.452Z,574.00
2023-05-04T06:41:58.485Z,571.00
2023-05-04T06:42:58.410Z,566.00
2023-05-04T06:43:58.954Z,564.00
2023-05-04T06:44:58.408Z,542.00
2023-05-04T06:45:58.428Z,540.00
2023-05-04T06:46:58.792Z,539.00
2023-05-04T06:47:58.361Z,554.00
2023-05-04T06:48:58.400Z,562.00
2023-05-04T06:49:58.362Z,569.00
2023-05-04T06:50:59.686Z,572.00
2023-05-04T06:51:58.391Z,577.00
2023-05-04T06:52:58.388Z,581.00
2023-05-04T06:53:58.437Z,582.00
2023-05-04T06:54:58.439Z,591.00
2023-05-04T06:55:58.424Z,595.00
2023-05-04T06:56:58.424Z,591.00
2023-05-04T06:57:58.488Z,582.00
2023-05-04T06:58:58.464Z,583.00
2023-05-04T06:59:58.413Z,588.00
2023-05-04T07:00:58.478Z,586.00
2023-05-04T07:01:58.456Z,591.00
2023-05-04T07:02:58.498Z,591.00
2023-05-04T07:03:58.517Z,591.00
2023-05-04T07:04:58.446Z,589.00
2023-05-04T07:05:58.461Z,582.00
2023-05-04T07:06:58.431Z,587.00
2023-05-04T07:07:58.437Z,585.00
2023-05-04T07:08:58.435Z,582.00
2023-05-04T07:09:58.421Z,586.00
2023-05-04T07:10:58.377Z,585.00
2023-05-04T07:11:58.395Z,586.00
2023-05-04T07:12:58.413Z,582.00
2023-05-04T07:13:58.411Z,581.00
2023-05-04T07:14:58.421Z,586.00
2023-05-04T07:15:58.526Z,594.00
2023-05-04T07:16:58.496Z,603.00
2023-05-04T07:17:58.652Z,597.00
2023-05-04T07:18:58.615Z,595.00
2023-05-04T07:19:58.627Z,586.00
2023-05-04T07:21:10.772Z,593.00
2023-05-04T07:21:59.560Z,594.00
2023-05-04T07:22:58.568Z,595.00
2023-05-04T07:23:58.575Z,594.00
2023-05-04T07:24:58.576Z,582.00
2023-05-04T07:25:58.545Z,565.00
2023-05-04T07:26:58.574Z,554.00
2023-05-04T07:27:58.551Z,574.00
2023-05-04T07:28:58.545Z,580.00
2023-05-04T07:29:58.842Z,581.00
2023-05-04T07:30:58.520Z,577.00
2023-05-04T07:31:58.612Z,577.00
2023-05-04T07:32:58.651Z,560.00
2023-05-04T07:33:58.599Z,558.00
2023-05-04T07:34:58.620Z,540.00
2023-05-04T07:35:58.666Z,533.00
2023-05-04T07:36:58.597Z,539.00
2023-05-04T07:37:58.627Z,545.00
2023-05-04T07:38:58.824Z,548.00
2023-05-04T07:39:58.604Z,525.00
2023-05-04T07:40:58.626Z,542.00
2023-05-04T07:41:58.591Z,531.00
2023-05-04T07:42:58.614Z,533.00
2023-05-04T07:43:58.602Z,547.00
2023-05-04T07:44:58.633Z,526.00
2023-05-04T07:45:58.678Z,526.00
2023-05-04T07:46:58.636Z,535.00
2023-05-04T07:47:58.638Z,520.00
2023-05-04T07:48:58.678Z,511.00
2023-05-04T07:49:58.711Z,500.00
2023-05-04T07:50:58.836Z,520.00
2023-05-04T07:51:59.052Z,534.00
2023-05-04T07:52:58.871Z,541.00
2023-05-04T07:53:58.950Z,532.00
2023-05-04T07:54:59.030Z,532.00
2023-05-04T07:55:59.074Z,527.00
2023-05-04T07:56:59.121Z,523.00
2023-05-04T07:57:59.160Z,534.00
2023-05-04T07:58:59.214Z,525.00
2023-05-04T07:59:59.307Z,520.00
2023-05-04T08:00:59.348Z,556.00
2023-05-04T08:01:59.400Z,568.00
2023-05-04T08:02:59.496Z,554.00
2023-05-04T08:03:59.513Z,549.00
2023-05-04T08:04:59.582Z,548.00
2023-05-04T08:05:59.590Z,562.00
2023-05-04T08:06:59.695Z,570.00
2023-05-04T08:07:59.751Z,586.00
2023-05-04T08:08:59.832Z,596.00
2023-05-04T08:09:59.837Z,566.00
2023-05-04T08:11:12.024Z,584.00
2023-05-04T08:12:00.904Z,584.00
2023-05-04T08:12:59.898Z,587.00
2023-05-04T08:13:59.897Z,594.00
2023-05-04T08:14:59.894Z,595.00
2023-05-04T08:15:59.841Z,601.00
2023-05-04T08:16:59.851Z,609.00
2023-05-04T08:17:59.995Z,591.00
2023-05-04T08:18:59.877Z,604.00
2023-05-04T08:19:59.878Z,617.00
2023-05-04T08:20:59.870Z,633.00
2023-05-04T08:21:59.961Z,627.00
2023-05-04T08:22:59.999Z,622.00
2023-05-04T08:24:00.092Z,618.00
2023-05-04T08:25:00.135Z,587.00
2023-05-04T08:26:00.193Z,598.00
2023-05-04T08:27:07.921Z,590.00
2023-05-04T08:28:01.235Z,591.00
2023-05-04T08:29:00.227Z,591.00
2023-05-04T08:30:00.254Z,599.00
2023-05-04T08:31:00.211Z,598.00
2023-05-04T08:32:00.386Z,613.00
2023-05-04T08:33:00.240Z,594.00
2023-05-04T08:34:00.246Z,570.00
2023-05-04T08:35:00.218Z,560.00
2023-05-04T08:36:00.174Z,567.00
2023-05-04T08:37:00.240Z,547.00
2023-05-04T08:38:00.305Z,516.00
2023-05-04T08:39:00.336Z,509.00
2023-05-04T08:40:00.319Z,500.00
2023-05-04T08:41:00.397Z,501.00
2023-05-04T08:42:00.440Z,497.00
2023-05-04T08:43:00.431Z,487.00
2023-05-04T08:44:00.483Z,504.00
2023-05-04T08:45:00.561Z,499.00
2023-05-04T08:46:00.523Z,500.00
2023-05-04T08:47:00.420Z,514.00
2023-05-04T08:48:00.478Z,526.00
2023-05-04T08:49:00.447Z,533.00
2023-05-04T08:50:00.439Z,556.00
2023-05-04T08:51:00.525Z,551.00
2023-05-04T08:52:00.595Z,572.00
2023-05-04T08:53:00.633Z,596.00
2023-05-04T08:54:00.682Z,583.00
2023-05-04T08:55:00.736Z,598.00
2023-05-04T08:56:00.815Z,599.00
2023-05-04T08:57:00.826Z,584.00
2023-05-04T08:58:00.891Z,580.00
2023-05-04T08:59:01.008Z,574.00
2023-05-04T09:00:01.082Z,580.00
2023-05-04T09:01:01.258Z,573.00
2023-05-04T09:02:01.190Z,568.00
2023-05-04T09:03:01.228Z,565.00
2023-05-04T09:04:01.250Z,583.00
2023-05-04T09:05:01.272Z,561.00
2023-05-04T09:06:01.342Z,570.00
2023-05-04T09:07:01.332Z,589.00
2023-05-04T09:08:01.345Z,587.00
2023-05-04T09:09:01.413Z,604.00
2023-05-04T09:10:01.424Z,614.00
2023-05-04T09:11:01.509Z,627.00
2023-05-04T09:12:01.527Z,634.00
2023-05-04T09:13:01.619Z,632.00
2023-05-04T09:14:01.790Z,623.00
2023-05-04T09:15:01.654Z,607.00
2023-05-04T09:16:01.679Z,626.00
2023-05-04T09:17:01.730Z,613.00
2023-05-04T09:18:01.774Z,608.00
2023-05-04T09:19:01.733Z,611.00
2023-05-04T09:20:01.844Z,611.00
2023-05-04T09:21:01.848Z,607.00
2023-05-04T09:22:01.900Z,603.00
2023-05-04T09:23:01.900Z,601.00
2023-05-04T09:24:01.878Z,588.00
2023-05-04T09:25:02.068Z,588.00
2023-05-04T09:26:01.978Z,598.00
2023-05-04T09:27:02.004Z,601.00
2023-05-04T09:28:02.038Z,619.00
2023-05-04T09:29:02.043Z,611.00
2023-05-04T09:30:02.044Z,606.00
2023-05-04T09:31:02.380Z,553.00
2023-05-04T09:32:02.126Z,500.00
2023-05-04T09:33:02.156Z,503.00
2023-05-04T09:34:02.336Z,500.00
2023-05-04T09:35:02.346Z,496.00
2023-05-04T09:36:02.213Z,500.00
2023-05-04T09:37:02.273Z,503.00
2023-05-04T09:38:02.319Z,502.00
2023-05-04T09:39:02.312Z,501.00
2023-05-04T09:40:02.386Z,506.00
2023-05-04T09:41:02.490Z,508.00
2023-05-04T09:42:02.433Z,500.00
2023-05-04T09:43:02.441Z,504.00
2023-05-04T09:44:02.523Z,499.00
2023-05-04T09:45:02.785Z,500.00
2023-05-04T09:46:02.636Z,500.00
2023-05-04T09:47:02.668Z,501.00
2023-05-04T09:48:02.695Z,501.00
2023-05-04T09:49:02.788Z,500.00
2023-05-04T09:50:03.060Z,501.00
2023-05-04T09:51:02.864Z,507.00
2023-05-04T09:52:03.053Z,501.00
2023-05-04T09:53:02.984Z,506.00
2023-05-04T09:54:03.033Z,523.00
2023-05-04T09:55:03.279Z,525.00
2023-05-04T09:56:05.759Z,502.00
2023-05-04T09:57:03.164Z,472.00
2023-05-04T09:58:03.114Z,461.00
2023-05-04T09:59:03.128Z,503.00
2023-05-04T10:00:03.145Z,454.00
2023-05-04T10:01:03.133Z,433.00
2023-05-04T10:02:14.537Z,481.00
2023-05-04T10:03:04.199Z,466.00
2023-05-04T10:04:03.070Z,444.00
2023-05-04T10:05:03.321Z,439.00
2023-05-04T10:06:03.055Z,453.00
2023-05-04T10:07:03.068Z,438.00
2023-05-04T10:08:03.024Z,496.00
2023-05-04T10:09:03.047Z,504.00
2023-05-04T10:10:03.050Z,529.00
2023-05-04T10:11:03.040Z,551.00
2023-05-04T10:12:02.998Z,581.00
2023-05-04T10:13:03.098Z,632.00
2023-05-04T10:14:03.135Z,681.00
2023-05-04T10:15:03.298Z,718.00
2023-05-04T10:16:03.267Z,807.00
2023-05-04T10:17:03.251Z,895.00
2023-05-04T10:18:03.299Z,986.00
2023-05-04T10:19:03.326Z,1062.00
2023-05-04T10:20:03.372Z,1163.00
2023-05-04T10:21:03.439Z,1176.00
2023-05-04T10:22:03.504Z,1234.00
2023-05-04T10:23:03.487Z,1315.00
2023-05-04T10:24:03.547Z,1357.00
2023-05-04T10:25:03.774Z,1409.00
2023-05-04T10:26:03.564Z,1454.00
2023-05-04T10:27:03.677Z,1488.00
2023-05-04T10:28:03.651Z,1480.00
2023-05-04T10:29:03.690Z,1534.00
2023-05-04T10:30:03.747Z,1542.00
2023-05-04T10:31:03.805Z,1576.00
2023-05-04T10:32:03.908Z,1630.00
2023-05-04T10:33:03.926Z,1652.00
2023-05-04T10:34:03.895Z,1661.00
2023-05-04T10:35:04.163Z,1698.00
2023-05-04T10:36:03.932Z,1718.00
2023-05-04T10:37:03.942Z,1751.00
2023-05-04T10:38:03.962Z,1758.00
2023-05-04T10:39:04.003Z,1775.00
2023-05-04T10:40:05.104Z,1803.00
2023-05-04T10:41:04.122Z,1821.00
2023-05-04T10:42:04.972Z,1839.00
2023-05-04T10:43:04.145Z,1842.00
2023-05-04T10:44:04.154Z,1832.00
2023-05-04T10:45:04.361Z,1848.00
2023-05-04T10:46:04.364Z,1861.00
2023-05-04T10:47:04.775Z,1879.00
2023-05-04T10:48:04.288Z,1904.00
2023-05-04T10:49:04.292Z,1912.00
2023-05-04T10:50:04.329Z,1930.00
2023-05-04T10:51:04.334Z,1932.00
2023-05-04T10:52:04.361Z,1925.00
2023-05-04T10:53:04.363Z,1929.00
2023-05-04T10:54:04.421Z,1947.00
2023-05-04T10:55:04.501Z,1940.00
2023-05-04T10:56:04.379Z,1932.00
2023-05-04T10:57:04.434Z,1933.00
2023-05-04T10:58:04.446Z,1912.00
2023-05-04T10:59:04.461Z,1871.00
2023-05-04T11:00:04.459Z,1884.00
2023-05-04T11:01:04.518Z,1881.00
2023-05-04T11:02:04.532Z,1870.00
2023-05-04T11:03:04.624Z,1833.00
2023-05-04T11:04:04.523Z,1743.00
2023-05-04T11:05:04.928Z,1714.00
2023-05-04T11:06:04.535Z,1669.00
2023-05-04T11:07:04.574Z,1613.00
2023-05-04T11:08:04.575Z,1643.00
2023-05-04T11:09:04.600Z,1579.00
2023-05-04T11:10:04.581Z,1558.00
2023-05-04T11:11:04.622Z,1554.00
2023-05-04T11:12:04.645Z,1545.00
2023-05-04T11:13:06.157Z,1511.00
2023-05-04T11:14:04.950Z,1510.00
2023-05-04T11:15:05.012Z,1515.00
2023-05-04T11:16:04.831Z,1519.00
2023-05-04T11:17:09.755Z,1484.00
2023-05-04T11:18:06.131Z,1486.00
2023-05-04T11:19:04.791Z,1498.00
2023-05-04T11:20:04.798Z,1489.00
2023-05-04T11:21:04.853Z,1496.00
2023-05-04T11:22:04.764Z,1489.00
2023-05-04T11:23:04.886Z,1492.00
2023-05-04T11:24:04.829Z,1527.00
2023-05-04T11:25:04.980Z,1507.00
2023-05-04T11:26:04.728Z,1467.00
2023-05-04T11:27:04.745Z,1333.00
2023-05-04T11:28:04.742Z,1250.00
2023-05-04T11:29:04.730Z,1252.00
2023-05-04T11:30:04.738Z,1233.00
2023-05-04T11:31:04.713Z,1248.00
2023-05-04T11:32:04.709Z,1254.00
2023-05-04T11:33:04.703Z,1306.00
2023-05-04T11:34:04.724Z,1359.00
2023-05-04T11:35:04.794Z,1333.00
2023-05-04T11:36:04.660Z,1305.00
2023-05-04T11:37:04.664Z,1196.00
2023-05-04T11:38:04.660Z,1123.00
2023-05-04T11:39:04.649Z,1108.00
2023-05-04T11:40:04.688Z,1128.00
2023-05-04T11:41:04.674Z,1152.00
2023-05-04T11:42:04.645Z,1154.00
2023-05-04T11:43:04.664Z,1132.00
2023-05-04T11:44:04.615Z,1146.00
2023-05-04T11:45:04.748Z,1193.00
2023-05-04T11:46:04.766Z,1238.00
2023-05-04T11:47:04.614Z,1262.00
2023-05-04T11:48:04.652Z,1300.00
2023-05-04T11:49:04.573Z,1351.00
2023-05-04T11:50:04.592Z,1412.00
2023-05-04T11:51:04.543Z,1418.00
2023-05-04T11:52:04.548Z,1375.00
2023-05-04T11:53:04.610Z,1383.00
2023-05-04T11:54:04.546Z,1306.00
2023-05-04T11:55:04.905Z,1237.00
2023-05-04T11:56:04.515Z,1191.00
2023-05-04T11:57:04.521Z,1215.00
2023-05-04T11:58:04.543Z,1280.00
2023-05-04T11:59:04.550Z,1347.00
2023-05-04T12:00:04.553Z,1421.00
2023-05-04T12:01:04.742Z,1457.00
2023-05-04T12:02:04.530Z,1410.00
2023-05-04T12:03:04.615Z,1293.00
2023-05-04T12:04:04.663Z,1179.00
2023-05-04T12:05:04.834Z,1168.00
2023-05-04T12:06:04.622Z,1195.00
2023-05-04T12:07:04.703Z,1221.00
2023-05-04T12:08:04.754Z,1257.00
2023-05-04T12:09:04.748Z,1319.00
2023-05-04T12:10:04.765Z,1330.00
2023-05-04T12:11:04.751Z,1408.00
2023-05-04T12:12:04.858Z,1482.00
2023-05-04T12:13:04.880Z,1488.00
2023-05-04T12:14:04.904Z,1414.00
2023-05-04T12:15:05.244Z,1228.00
2023-05-04T12:16:05.033Z,1256.00
2023-05-04T12:17:05.068Z,1254.00
2023-05-04T12:18:05.192Z,1250.00
2023-05-04T12:19:05.252Z,1311.00